createdAt,value
2022-11-29T00:00:46.018Z,95867
2022-11-29T00:01:45.020Z,95862
2022-11-29T00:02:45.050Z,95861
2022-11-29T00:03:44.945Z,95863
2022-11-29T00:04:45.369Z,95861
2022-11-29T00:05:44.901Z,95861
2022-11-29T00:06:44.955Z,95861
2022-11-29T00:07:44.971Z,95857
2022-11-29T00:08:44.948Z,95859
2022-11-29T00:09:44.950Z,95860
2022-11-29T00:10:44.959Z,95857
2022-11-29T00:11:45.009Z,95859
2022-11-29T00:12:44.916Z,95857
2022-11-29T00:13:44.917Z,95857
2022-11-29T00:14:46.540Z,95855
2022-11-29T00:15:44.976Z,95855
2022-11-29T00:16:45.023Z,95854
2022-11-29T00:19:44.961Z,95850
2022-11-29T00:20:44.938Z,95850
2022-11-29T00:21:45.010Z,95850
2022-11-29T00:22:44.968Z,95849
2022-11-29T00:23:44.973Z,95849
2022-11-29T00:24:45.235Z,95847
2022-11-29T00:25:44.991Z,95847
2022-11-29T00:26:44.986Z,95845
2022-11-29T00:27:45.015Z,95849
2022-11-29T00:28:44.950Z,95849
2022-11-29T00:29:45.023Z,95848
2022-11-29T00:30:45.022Z,95848
2022-11-29T00:32:45.001Z,95848
2022-11-29T00:33:44.997Z,95848
2022-11-29T00:34:45.172Z,95850
2022-11-29T00:35:45.005Z,95849
2022-11-29T00:36:44.964Z,95849
2022-11-29T00:37:44.962Z,95852
2022-11-29T00:38:44.994Z,95850
2022-11-29T00:39:45.012Z,95848
2022-11-29T00:40:45.017Z,95847
2022-11-29T00:41:44.979Z,95847
2022-11-29T00:42:45.055Z,95849
2022-11-29T00:43:45.057Z,95845
2022-11-29T00:44:45.352Z,95850
2022-11-29T00:45:45.006Z,95850
2022-11-29T00:47:45.043Z,95844
2022-11-29T00:48:45.050Z,95843
2022-11-29T00:49:45.092Z,95845
2022-11-29T00:51:45.052Z,95845
2022-11-29T00:52:45.039Z,95841
2022-11-29T00:53:45.024Z,95846
2022-11-29T00:54:45.395Z,95842
2022-11-29T00:55:45.078Z,95844
2022-11-29T00:56:45.058Z,95842
2022-11-29T00:57:45.067Z,95844
2022-11-29T00:58:45.033Z,95844
2022-11-29T01:01:45.073Z,95844
2022-11-29T01:02:45.093Z,95842
2022-11-29T01:03:45.089Z,95842
2022-11-29T01:05:45.085Z,95840
2022-11-29T01:21:45.111Z,95848
2022-11-29T01:23:45.133Z,95851
2022-11-29T01:24:45.262Z,95850
2022-11-29T01:25:45.106Z,95851
2022-11-29T01:36:45.168Z,95843
2022-11-29T01:37:45.205Z,95841
2022-11-29T01:38:45.164Z,95840
2022-11-29T01:40:45.168Z,95838
2022-11-29T01:43:45.182Z,95839
2022-11-29T01:44:45.478Z,95839
2022-11-29T01:45:45.202Z,95839
2022-11-29T01:48:45.174Z,95837
2022-11-29T01:49:45.216Z,95836
2022-11-29T01:51:45.193Z,95838
2022-11-29T01:53:45.203Z,95840
2022-11-29T01:54:45.507Z,95837
2022-11-29T01:55:45.297Z,95842
2022-11-29T01:57:45.250Z,95838
2022-11-29T01:59:45.203Z,95840
2022-11-29T02:00:45.242Z,95841
2022-11-29T02:01:45.306Z,95840
2022-11-29T02:02:45.349Z,95839
2022-11-29T02:04:45.484Z,95839
2022-11-29T02:05:45.216Z,95838
2022-11-29T02:06:45.229Z,95836
2022-11-29T02:07:45.308Z,95834
2022-11-29T02:08:45.240Z,95841
2022-11-29T02:09:45.266Z,95837
2022-11-29T02:11:45.257Z,95840
2022-11-29T02:13:45.249Z,95841
2022-11-29T02:15:45.337Z,95841
2022-11-29T02:16:45.218Z,95841
2022-11-29T02:17:45.249Z,95838
2022-11-29T02:18:45.265Z,95838
2022-11-29T02:19:45.260Z,95836
2022-11-29T02:20:45.222Z,95836
2022-11-29T02:21:45.231Z,95839
2022-11-29T02:22:45.319Z,95835
2022-11-29T02:23:45.233Z,95837
2022-11-29T02:26:45.291Z,95835
2022-11-29T02:27:45.314Z,95834
2022-11-29T02:28:45.295Z,95833
2022-11-29T02:30:45.309Z,95833
2022-11-29T02:31:45.286Z,95829
2022-11-29T02:32:45.289Z,95828
2022-11-29T02:33:45.256Z,95828
2022-11-29T02:34:45.440Z,95831
2022-11-29T02:35:45.324Z,95827
2022-11-29T02:36:45.334Z,95827
2022-11-29T02:38:45.305Z,95829
2022-11-29T02:39:45.290Z,95832
2022-11-29T02:40:45.329Z,95830
2022-11-29T02:41:45.305Z,95830
2022-11-29T02:43:45.327Z,95830
2022-11-29T02:44:45.493Z,95829
2022-11-29T02:45:45.365Z,95832
2022-11-29T02:47:45.359Z,95828
2022-11-29T02:48:45.354Z,95830
2022-11-29T02:49:45.334Z,95825
2022-11-29T02:50:45.369Z,95829
2022-11-29T02:51:45.300Z,95829
2022-11-29T02:52:45.390Z,95824
2022-11-29T02:53:45.306Z,95824
2022-11-29T02:54:45.658Z,95830
2022-11-29T02:56:45.354Z,95833
2022-11-29T02:58:45.339Z,95836
2022-11-29T03:00:45.395Z,95832
2022-11-29T03:01:45.360Z,95832
2022-11-29T03:02:45.446Z,95830
2022-11-29T03:03:45.367Z,95833
2022-11-29T03:04:45.676Z,95832
2022-11-29T03:06:45.342Z,95833
2022-11-29T03:07:45.423Z,95835
2022-11-29T03:09:45.483Z,95830
2022-11-29T03:10:45.431Z,95832
2022-11-29T03:11:45.398Z,95832
2022-11-29T03:12:45.426Z,95834
2022-11-29T03:13:45.400Z,95834
2022-11-29T03:15:45.537Z,95838
2022-11-29T03:16:45.412Z,95838
2022-11-29T03:17:45.420Z,95837
2022-11-29T03:18:45.406Z,95838
2022-11-29T03:19:45.421Z,95842
2022-11-29T03:20:45.444Z,95837
2022-11-29T03:23:45.433Z,95841
2022-11-29T03:24:45.516Z,95841
2022-11-29T03:26:45.428Z,95843
2022-11-29T03:27:45.441Z,95843
2022-11-29T03:28:45.421Z,95843
2022-11-29T03:29:45.435Z,95843
2022-11-29T03:30:45.557Z,95847
2022-11-29T03:31:45.400Z,95847
2022-11-29T03:32:45.444Z,95847
2022-11-29T03:33:45.476Z,95848
2022-11-29T03:34:45.736Z,95848
2022-11-29T03:35:45.474Z,95850
2022-11-29T03:36:45.440Z,95850
2022-11-29T03:37:45.467Z,95848
2022-11-29T03:38:45.500Z,95852
2022-11-29T03:39:45.450Z,95852
2022-11-29T03:40:45.490Z,95851
2022-11-29T03:42:45.479Z,95848
2022-11-29T03:43:45.508Z,95853
2022-11-29T03:44:45.667Z,95856
2022-11-29T03:45:45.490Z,95854
2022-11-29T03:47:45.442Z,95854
2022-11-29T03:49:45.452Z,95855
2022-11-29T03:50:45.505Z,95855
2022-11-29T03:51:45.461Z,95855
2022-11-29T03:52:45.493Z,95857
2022-11-29T03:53:45.501Z,95858
2022-11-29T03:54:45.821Z,95859
2022-11-29T03:56:45.495Z,95861
2022-11-29T03:57:45.518Z,95861
2022-11-29T03:58:45.497Z,95858
2022-11-29T03:59:45.482Z,95857
2022-11-29T04:01:45.512Z,95862
2022-11-29T04:02:45.546Z,95861
2022-11-29T04:03:45.548Z,95859
2022-11-29T04:04:45.748Z,95859
2022-11-29T04:05:45.538Z,95859
2022-11-29T04:06:45.505Z,95860
2022-11-29T04:07:45.530Z,95860
2022-11-29T04:08:45.538Z,95858
2022-11-29T04:09:45.547Z,95858
2022-11-29T04:11:45.505Z,95858
2022-11-29T04:12:45.564Z,95857
2022-11-29T04:14:45.853Z,95860
2022-11-29T04:16:45.545Z,95856
2022-11-29T04:17:45.531Z,95856
2022-11-29T04:18:45.575Z,95857
2022-11-29T04:19:45.573Z,95857
2022-11-29T04:20:48.168Z,95858
2022-11-29T04:21:45.613Z,95858
2022-11-29T04:22:45.567Z,95858
2022-11-29T04:23:45.625Z,95854
2022-11-29T04:24:45.911Z,95854
2022-11-29T04:26:45.628Z,95854
2022-11-29T04:27:45.575Z,95854
2022-11-29T04:28:45.573Z,95855
2022-11-29T04:29:45.585Z,95858
2022-11-29T04:30:45.666Z,95858
2022-11-29T04:31:45.597Z,95854
2022-11-29T04:32:45.577Z,95860
2022-11-29T04:33:45.624Z,95856
2022-11-29T04:34:45.973Z,95856
2022-11-29T04:35:45.633Z,95860
2022-11-29T04:36:45.599Z,95860
2022-11-29T04:37:45.604Z,95860
2022-11-29T04:39:45.607Z,95859
2022-11-29T04:41:45.572Z,95860
2022-11-29T04:42:45.589Z,95857
2022-11-29T04:43:45.663Z,95859
2022-11-29T04:44:45.749Z,95859
2022-11-29T04:46:45.726Z,95860
2022-11-29T04:47:45.613Z,95860
2022-11-29T04:49:45.660Z,95862
2022-11-29T04:50:45.633Z,95862
2022-11-29T04:51:45.646Z,95863
2022-11-29T04:52:45.633Z,95863
2022-11-29T04:54:46.077Z,95867
2022-11-29T04:55:45.680Z,95868
2022-11-29T04:56:45.692Z,95868
2022-11-29T04:58:45.649Z,95867
2022-11-29T04:59:45.634Z,95870
2022-11-29T05:00:45.690Z,95870
2022-11-29T05:02:45.650Z,95873
2022-11-29T05:03:46.921Z,95868
2022-11-29T05:08:45.684Z,95871
2022-11-29T05:10:45.646Z,95874
2022-11-29T05:11:45.678Z,95875
2022-11-29T05:12:45.706Z,95875
2022-11-29T05:13:45.657Z,95875
2022-11-29T05:14:46.007Z,95876
2022-11-29T05:15:45.747Z,95875
2022-11-29T05:16:45.736Z,95877
2022-11-29T05:17:45.717Z,95877
2022-11-29T05:18:46.998Z,95876
2022-11-29T05:19:45.733Z,95881
2022-11-29T05:21:45.761Z,95880
2022-11-29T05:22:45.732Z,95880
2022-11-29T05:23:45.706Z,95879
2022-11-29T05:24:46.146Z,95878
2022-11-29T05:25:45.720Z,95878
2022-11-29T05:26:45.731Z,95883
2022-11-29T05:27:45.727Z,95886
2022-11-29T05:28:45.720Z,95882
2022-11-29T05:30:45.707Z,95884
2022-11-29T05:31:45.737Z,95883
2022-11-29T05:32:45.770Z,95888
2022-11-29T05:33:45.721Z,95889
2022-11-29T05:34:45.761Z,95888
2022-11-29T05:35:45.757Z,95887
2022-11-29T05:36:45.748Z,95887
2022-11-29T05:37:45.809Z,95886
2022-11-29T05:38:45.760Z,95886
2022-11-29T05:40:45.769Z,95887
2022-11-29T05:41:45.728Z,95887
2022-11-29T05:42:45.798Z,95885
2022-11-29T05:43:45.757Z,95889
2022-11-29T05:44:46.092Z,95888
2022-11-29T05:45:45.807Z,95888
2022-11-29T05:47:45.770Z,95892
2022-11-29T05:48:45.788Z,95888
2022-11-29T05:49:45.832Z,95893
2022-11-29T05:50:45.787Z,95893
2022-11-29T05:51:45.772Z,95893
2022-11-29T05:52:45.817Z,95895
2022-11-29T05:53:45.782Z,95896
2022-11-29T05:55:45.767Z,95901
2022-11-29T05:56:45.804Z,95899
2022-11-29T05:57:45.857Z,95899
2022-11-29T05:58:45.769Z,95899
2022-11-29T05:59:45.809Z,95899
2022-11-29T06:00:45.815Z,95899
2022-11-29T06:01:45.836Z,95899
2022-11-29T06:02:45.843Z,95903
2022-11-29T06:03:45.803Z,95903
2022-11-29T06:04:46.085Z,95901
2022-11-29T06:05:45.869Z,95902
2022-11-29T06:06:45.787Z,95904
2022-11-29T06:07:45.935Z,95905
2022-11-29T06:08:45.827Z,95905
2022-11-29T06:09:45.798Z,95905
2022-11-29T06:10:45.859Z,95911
2022-11-29T06:11:45.796Z,95909
2022-11-29T06:12:45.881Z,95912
2022-11-29T06:13:45.843Z,95912
2022-11-29T06:14:46.274Z,95911
2022-11-29T06:16:45.839Z,95912
2022-11-29T06:17:45.854Z,95917
2022-11-29T06:18:45.825Z,95916
2022-11-29T06:19:45.822Z,95918
2022-11-29T06:20:45.893Z,95920
2022-11-29T06:21:45.857Z,95919
2022-11-29T06:22:45.883Z,95918
2022-11-29T06:23:45.864Z,95917
2022-11-29T06:24:46.361Z,95920
2022-11-29T06:25:45.865Z,95920
2022-11-29T06:26:45.874Z,95921
2022-11-29T06:27:45.862Z,95921
2022-11-29T06:28:45.930Z,95922
2022-11-29T06:29:45.886Z,95921
2022-11-29T06:31:45.924Z,95924
2022-11-29T06:32:45.881Z,95924
2022-11-29T06:33:45.946Z,95919
2022-11-29T06:34:46.124Z,95923
2022-11-29T06:35:45.872Z,95923
2022-11-29T06:36:45.944Z,95921
2022-11-29T06:37:45.904Z,95924
2022-11-29T06:39:45.888Z,95925
2022-11-29T06:40:45.871Z,95926
2022-11-29T06:42:45.892Z,95923
2022-11-29T06:43:45.955Z,95923
2022-11-29T06:44:46.165Z,95923
2022-11-29T06:45:45.931Z,95924
2022-11-29T06:47:45.940Z,95928
2022-11-29T06:48:45.916Z,95928
2022-11-29T06:49:45.970Z,95929
2022-11-29T06:50:45.900Z,95932
2022-11-29T06:51:45.962Z,95930
2022-11-29T06:52:45.890Z,95930
2022-11-29T06:53:45.939Z,95932
2022-11-29T06:54:46.208Z,95931
2022-11-29T06:55:45.925Z,95931
2022-11-29T06:56:45.976Z,95931
2022-11-29T06:57:45.947Z,95930
2022-11-29T07:01:46.061Z,95935
2022-11-29T07:02:45.960Z,95934
2022-11-29T07:04:46.611Z,95934
2022-11-29T07:05:45.971Z,95936
2022-11-29T07:06:45.965Z,95938
2022-11-29T07:07:46.046Z,95938
2022-11-29T07:08:45.959Z,95941
2022-11-29T07:09:46.015Z,95942
2022-11-29T07:10:45.951Z,95940
2022-11-29T07:11:45.994Z,95946
2022-11-29T07:12:45.994Z,95946
2022-11-29T07:13:45.995Z,95947
2022-11-29T07:15:45.974Z,95947
2022-11-29T07:16:45.954Z,95952
2022-11-29T07:17:46.035Z,95949
2022-11-29T07:18:46.011Z,95952
2022-11-29T07:19:46.040Z,95954
2022-11-29T07:20:46.035Z,95955
2022-11-29T07:21:46.018Z,95955
2022-11-29T07:22:46.059Z,95956
2022-11-29T07:23:46.016Z,95956
2022-11-29T07:24:46.287Z,95958
2022-11-29T07:25:45.980Z,95958
2022-11-29T07:26:46.031Z,95958
2022-11-29T07:27:46.044Z,95957
2022-11-29T07:28:46.030Z,95957
2022-11-29T07:29:46.051Z,95954
2022-11-29T07:31:46.074Z,95954
2022-11-29T07:32:50.329Z,95956
2022-11-29T07:33:46.059Z,95956
2022-11-29T07:34:46.251Z,95955
2022-11-29T07:35:46.044Z,95957
2022-11-29T07:36:46.047Z,95958
2022-11-29T07:37:46.111Z,95959
2022-11-29T07:38:46.036Z,95956
2022-11-29T07:39:46.022Z,95956
2022-11-29T07:40:46.053Z,95956
2022-11-29T07:42:46.101Z,95957
2022-11-29T07:43:46.029Z,95958
2022-11-29T07:45:46.071Z,95962
2022-11-29T07:47:46.113Z,95966
2022-11-29T07:48:46.108Z,95965
2022-11-29T07:49:46.060Z,95965
2022-11-29T07:50:46.074Z,95965
2022-11-29T07:51:46.073Z,95965
2022-11-29T07:52:46.107Z,95964
2022-11-29T07:53:46.145Z,95966
2022-11-29T07:54:46.348Z,95968
2022-11-29T07:57:46.061Z,95969
2022-11-29T08:01:46.180Z,95971
2022-11-29T08:02:46.074Z,95968
2022-11-29T08:03:46.118Z,95974
2022-11-29T08:04:46.315Z,95974
2022-11-29T08:05:46.146Z,95977
2022-11-29T08:06:46.138Z,95974
2022-11-29T08:07:46.207Z,95975
2022-11-29T08:08:46.181Z,95972
2022-11-29T08:10:46.116Z,95972
2022-11-29T08:11:46.125Z,95975
2022-11-29T08:12:46.168Z,95976
2022-11-29T08:14:46.455Z,95976
2022-11-29T08:15:46.173Z,95979
2022-11-29T08:16:46.133Z,95980
2022-11-29T08:17:46.156Z,95979
2022-11-29T08:18:46.150Z,95981
2022-11-29T08:19:46.113Z,95985
2022-11-29T08:20:46.183Z,95985
2022-11-29T08:21:46.131Z,95986
2022-11-29T08:22:46.117Z,95985
2022-11-29T08:24:46.562Z,95987
2022-11-29T08:25:46.129Z,95987
2022-11-29T08:27:46.153Z,95989
2022-11-29T08:28:46.165Z,95989
2022-11-29T08:30:46.207Z,95990
2022-11-29T08:31:46.360Z,95993
2022-11-29T08:32:51.140Z,95993
2022-11-29T08:33:46.232Z,95993
2022-11-29T08:37:46.286Z,95992
2022-11-29T08:38:46.229Z,95991
2022-11-29T08:40:15.173Z,95992
2022-11-29T08:40:46.192Z,95992
2022-11-29T08:41:46.200Z,95990
2022-11-29T08:42:46.170Z,95990
2022-11-29T08:43:46.210Z,95990
2022-11-29T08:44:46.500Z,95995
2022-11-29T08:45:46.252Z,95989
2022-11-29T08:46:46.284Z,95991
2022-11-29T08:47:46.237Z,95995
2022-11-29T08:48:46.164Z,95995
2022-11-29T08:49:46.208Z,95993
2022-11-29T08:50:46.198Z,95993
2022-11-29T08:51:46.214Z,95993
2022-11-29T08:52:46.188Z,95991
2022-11-29T08:54:46.430Z,95996
2022-11-29T08:55:46.197Z,95996
2022-11-29T08:57:46.189Z,95994
2022-11-29T08:58:46.207Z,95994
2022-11-29T08:59:46.288Z,95994
2022-11-29T09:01:46.372Z,95995
2022-11-29T09:02:46.255Z,95995
2022-11-29T09:03:46.261Z,95996
2022-11-29T09:05:46.224Z,95997
2022-11-29T09:07:46.243Z,95999
2022-11-29T09:08:46.217Z,95999
2022-11-29T09:09:46.264Z,95998
2022-11-29T09:10:46.314Z,96005
2022-11-29T09:11:49.240Z,96002
2022-11-29T09:12:46.235Z,96002
2022-11-29T09:13:46.225Z,96002
2022-11-29T09:14:46.479Z,96003
2022-11-29T09:15:46.295Z,96003
2022-11-29T09:16:46.357Z,96002
2022-11-29T09:17:46.290Z,96007
2022-11-29T09:18:51.374Z,96005
2022-11-29T09:22:46.316Z,96010
2022-11-29T09:23:46.311Z,96011
2022-11-29T09:25:46.320Z,96014
2022-11-29T09:26:46.327Z,96014
2022-11-29T09:27:46.269Z,96012
2022-11-29T09:28:46.277Z,96012
2022-11-29T09:29:46.312Z,96011
2022-11-29T09:30:46.270Z,96012
2022-11-29T09:31:46.385Z,96012
2022-11-29T09:32:46.313Z,96014
2022-11-29T09:33:46.338Z,96017
2022-11-29T09:34:46.526Z,96014
2022-11-29T09:35:46.289Z,96014
2022-11-29T09:36:46.355Z,96018
2022-11-29T09:37:46.374Z,96021
2022-11-29T09:38:46.298Z,96021
2022-11-29T09:39:46.341Z,96018
2022-11-29T09:40:46.343Z,96018
2022-11-29T09:41:48.521Z,96021
2022-11-29T09:42:46.393Z,96029
2022-11-29T09:43:46.349Z,96028
2022-11-29T09:44:46.630Z,96025
2022-11-29T09:46:46.344Z,96025
2022-11-29T09:47:46.406Z,96027
2022-11-29T09:48:46.345Z,96024
2022-11-29T09:49:46.388Z,96023
2022-11-29T09:50:46.367Z,96025
2022-11-29T09:51:46.368Z,96023
2022-11-29T09:53:46.397Z,96021
2022-11-29T09:54:46.666Z,96018
2022-11-29T09:55:46.350Z,96018
2022-11-29T09:56:46.344Z,96020
2022-11-29T09:57:46.425Z,96021
2022-11-29T09:58:46.349Z,96022
2022-11-29T09:59:46.421Z,96022
2022-11-29T10:00:46.568Z,96021
2022-11-29T10:01:46.397Z,96019
2022-11-29T10:02:46.434Z,96024
2022-11-29T10:03:46.355Z,96024
2022-11-29T10:04:46.576Z,96021
2022-11-29T10:05:46.441Z,96021
2022-11-29T10:07:46.552Z,96023
2022-11-29T10:08:46.408Z,96023
2022-11-29T10:09:46.387Z,96021
2022-11-29T10:10:46.414Z,96023
2022-11-29T10:11:46.538Z,96023
2022-11-29T10:12:46.450Z,96021
2022-11-29T10:13:46.387Z,96021
2022-11-29T10:14:46.671Z,96022
2022-11-29T10:15:46.428Z,96024
2022-11-29T10:16:46.482Z,96024
2022-11-29T10:17:46.474Z,96019
2022-11-29T10:18:46.453Z,96019
2022-11-29T10:19:46.452Z,96020
2022-11-29T10:20:49.138Z,96020
2022-11-29T10:21:46.431Z,96020
2022-11-29T10:22:46.454Z,96019
2022-11-29T10:23:46.424Z,96019
2022-11-29T10:24:46.673Z,96017
2022-11-29T10:25:46.478Z,96018
2022-11-29T10:27:46.451Z,96019
2022-11-29T10:28:46.516Z,96019
2022-11-29T10:29:46.421Z,96019
2022-11-29T10:30:46.482Z,96020
2022-11-29T10:31:46.441Z,96020
2022-11-29T10:32:46.466Z,96016
2022-11-29T10:33:46.462Z,96016
2022-11-29T10:34:46.823Z,96016
2022-11-29T10:35:46.491Z,96016
2022-11-29T10:36:46.456Z,96016
2022-11-29T10:38:07.781Z,96015
2022-11-29T10:39:46.467Z,96015
2022-11-29T10:40:46.499Z,96012
2022-11-29T10:41:46.465Z,96014
2022-11-29T10:42:46.490Z,96014
2022-11-29T10:43:46.499Z,96015
2022-11-29T10:45:48.491Z,96013
2022-11-29T10:46:46.524Z,96016
2022-11-29T10:47:46.466Z,96016
2022-11-29T10:48:46.514Z,96017
2022-11-29T10:49:46.465Z,96017
2022-11-29T10:50:46.490Z,96012
2022-11-29T10:51:46.523Z,96012
2022-11-29T10:52:46.525Z,96014
2022-11-29T10:53:46.554Z,96012
2022-11-29T10:54:46.677Z,96012
2022-11-29T10:55:46.525Z,96014
2022-11-29T10:56:46.489Z,96014
2022-11-29T10:57:46.537Z,96018
2022-11-29T10:58:46.583Z,96014
2022-11-29T10:59:46.544Z,96014
2022-11-29T11:00:46.539Z,96014
2022-11-29T11:01:46.587Z,96011
2022-11-29T11:02:46.542Z,96010
2022-11-29T11:03:50.181Z,96009
2022-11-29T11:04:46.772Z,96009
2022-11-29T11:05:46.579Z,96010
2022-11-29T11:08:46.529Z,96011
2022-11-29T11:09:46.577Z,96012
2022-11-29T11:11:46.610Z,96012
2022-11-29T11:13:46.534Z,96016
2022-11-29T11:14:46.862Z,96013
2022-11-29T11:16:46.655Z,96017
2022-11-29T11:18:46.553Z,96015
2022-11-29T11:19:46.586Z,96016
2022-11-29T11:21:46.715Z,96012
2022-11-29T11:22:46.612Z,96016
2022-11-29T11:23:46.613Z,96015
2022-11-29T11:24:46.951Z,96015
2022-11-29T11:26:46.610Z,96013
2022-11-29T11:28:46.625Z,96013
2022-11-29T11:29:46.638Z,96012
2022-11-29T11:30:46.696Z,96012
2022-11-29T11:32:46.586Z,96012
2022-11-29T11:33:46.680Z,96014
2022-11-29T11:34:47.002Z,96010
2022-11-29T11:35:46.630Z,96008
2022-11-29T11:37:46.643Z,96013
2022-11-29T11:39:46.753Z,96014
2022-11-29T11:40:46.603Z,96013
2022-11-29T11:41:46.607Z,96013
2022-11-29T11:42:46.641Z,96013
2022-11-29T11:43:46.657Z,96014
2022-11-29T11:44:47.752Z,96017
2022-11-29T11:46:46.816Z,96016
2022-11-29T11:47:46.684Z,96014
2022-11-29T11:49:46.673Z,96013
2022-11-29T11:50:46.620Z,96013
2022-11-29T11:53:46.656Z,96015
2022-11-29T11:57:46.746Z,96013
2022-11-29T11:58:46.723Z,96017
2022-11-29T11:59:46.741Z,96020
2022-11-29T12:01:03.481Z,96017
2022-11-29T12:02:46.812Z,96020
2022-11-29T12:03:46.711Z,96017
2022-11-29T12:04:46.983Z,96017
2022-11-29T12:05:46.709Z,96017
2022-11-29T12:06:46.666Z,96018
2022-11-29T12:08:07.350Z,96018
2022-11-29T12:08:46.779Z,96018
2022-11-29T12:09:46.743Z,96021
2022-11-29T12:10:46.764Z,96021
2022-11-29T12:11:46.688Z,96022
2022-11-29T12:13:46.735Z,96025
2022-11-29T12:14:47.067Z,96022
2022-11-29T12:15:46.745Z,96022
2022-11-29T12:16:46.746Z,96024
2022-11-29T12:17:46.738Z,96023
2022-11-29T12:18:46.678Z,96023
2022-11-29T12:19:46.741Z,96027
2022-11-29T12:20:46.710Z,96027
2022-11-29T12:21:46.741Z,96025
2022-11-29T12:22:48.450Z,96025
2022-11-29T12:23:46.700Z,96026
2022-11-29T12:24:47.248Z,96026
2022-11-29T12:25:46.791Z,96027
2022-11-29T12:28:46.786Z,96026
2022-11-29T12:29:46.796Z,96029
2022-11-29T12:30:46.801Z,96029
2022-11-29T12:32:46.732Z,96030
2022-11-29T12:33:46.798Z,96025
2022-11-29T12:35:46.770Z,96030
2022-11-29T12:36:46.779Z,96032
2022-11-29T12:37:46.788Z,96027
2022-11-29T12:38:46.790Z,96028
2022-11-29T12:39:46.800Z,96030
2022-11-29T12:40:46.823Z,96029
2022-11-29T12:41:52.430Z,96029
2022-11-29T12:42:46.827Z,96033
2022-11-29T12:43:46.767Z,96028
2022-11-29T12:44:47.078Z,96033
2022-11-29T12:47:51.643Z,96038
2022-11-29T12:48:46.796Z,96038
2022-11-29T12:49:46.802Z,96038
2022-11-29T12:50:46.810Z,96036
2022-11-29T12:52:46.835Z,96039
2022-11-29T12:54:48.377Z,96039
2022-11-29T12:55:46.896Z,96038
2022-11-29T12:56:46.800Z,96038
2022-11-29T12:57:47.042Z,96034
2022-11-29T12:58:46.809Z,96034
2022-11-29T12:59:46.832Z,96036
2022-11-29T13:00:46.886Z,96037
2022-11-29T13:01:46.883Z,96035
2022-11-29T13:02:47.016Z,96038
2022-11-29T13:03:46.811Z,96038
2022-11-29T13:04:47.083Z,96036
2022-11-29T13:05:46.907Z,96036
2022-11-29T13:06:46.863Z,96042
2022-11-29T13:07:46.878Z,96042
2022-11-29T13:08:46.867Z,96037
2022-11-29T13:09:47.165Z,96038
2022-11-29T13:10:46.883Z,96038
2022-11-29T13:11:46.820Z,96038
2022-11-29T13:12:46.851Z,96038
2022-11-29T13:13:46.860Z,96040
2022-11-29T13:15:46.866Z,96036
2022-11-29T13:17:46.876Z,96037
2022-11-29T13:19:46.898Z,96041
2022-11-29T13:20:46.888Z,96043
2022-11-29T13:21:46.887Z,96041
2022-11-29T13:22:46.910Z,96041
2022-11-29T13:24:07.771Z,96040
2022-11-29T13:24:47.054Z,96042
2022-11-29T13:25:46.870Z,96040
2022-11-29T13:26:46.908Z,96040
2022-11-29T13:27:46.901Z,96042
2022-11-29T13:29:46.972Z,96041
2022-11-29T13:30:46.913Z,96042
2022-11-29T13:31:47.086Z,96040
2022-11-29T13:32:46.934Z,96038
2022-11-29T13:33:46.960Z,96041
2022-11-29T13:34:47.181Z,96041
2022-11-29T13:36:46.985Z,96042
2022-11-29T13:37:51.993Z,96040
2022-11-29T13:38:46.945Z,96041
2022-11-29T13:39:46.955Z,96044
2022-11-29T13:40:46.929Z,96044
2022-11-29T13:41:46.927Z,96043
2022-11-29T13:42:46.954Z,96043
2022-11-29T13:43:46.942Z,96046
2022-11-29T13:44:47.269Z,96046
2022-11-29T13:45:46.898Z,96046
2022-11-29T13:46:47.023Z,96045
2022-11-29T13:47:46.945Z,96045
2022-11-29T13:48:46.965Z,96045
2022-11-29T13:49:46.984Z,96044
2022-11-29T13:50:46.922Z,96044
2022-11-29T13:51:46.994Z,96045
2022-11-29T13:52:46.971Z,96047
2022-11-29T13:55:47.004Z,96047
2022-11-29T13:56:47.007Z,96050
2022-11-29T13:58:14.492Z,96043
2022-11-29T13:58:46.974Z,96046
2022-11-29T13:59:47.705Z,96049
2022-11-29T14:01:47.083Z,96048
2022-11-29T14:02:47.009Z,96048
2022-11-29T14:03:46.957Z,96050
2022-11-29T14:04:47.242Z,96054
2022-11-29T14:05:46.949Z,96054
2022-11-29T14:06:48.264Z,96054
2022-11-29T14:07:47.078Z,96054
2022-11-29T14:09:16.798Z,96054
2022-11-29T14:09:47.045Z,96051
2022-11-29T14:10:46.994Z,96051
2022-11-29T14:12:47.040Z,96055
2022-11-29T14:13:46.997Z,96055
2022-11-29T14:15:47.040Z,96056
2022-11-29T14:16:47.036Z,96054
2022-11-29T14:17:47.032Z,96055
2022-11-29T14:19:47.006Z,96054
2022-11-29T14:20:47.036Z,96053
2022-11-29T14:21:46.997Z,96054
2022-11-29T14:23:47.041Z,96055
2022-11-29T14:24:47.308Z,96055
2022-11-29T14:25:52.071Z,96056
2022-11-29T14:26:47.042Z,96056
2022-11-29T14:28:47.066Z,96055
2022-11-29T14:29:47.046Z,96061
2022-11-29T14:30:47.052Z,96061
2022-11-29T14:31:47.108Z,96060
2022-11-29T14:32:47.068Z,96063
2022-11-29T14:33:47.018Z,96060
2022-11-29T14:34:47.453Z,96063
2022-11-29T14:35:47.098Z,96062
2022-11-29T14:37:47.077Z,96066
2022-11-29T14:38:47.061Z,96065
2022-11-29T14:39:47.044Z,96067
2022-11-29T14:41:47.086Z,96067
2022-11-29T14:43:47.108Z,96067
2022-11-29T14:44:47.296Z,96069
2022-11-29T14:45:47.088Z,96067
2022-11-29T14:46:47.141Z,96066
2022-11-29T14:47:47.061Z,96066
2022-11-29T14:48:47.177Z,96067
2022-11-29T14:49:47.106Z,96067
2022-11-29T14:50:47.078Z,96071
2022-11-29T14:51:47.127Z,96069
2022-11-29T14:53:47.108Z,96067
2022-11-29T14:54:53.637Z,96071
2022-11-29T14:55:47.115Z,96071
2022-11-29T14:56:47.125Z,96068
2022-11-29T14:59:47.102Z,96074
2022-11-29T15:00:47.145Z,96074
2022-11-29T15:01:47.273Z,96074
2022-11-29T15:02:47.236Z,96078
2022-11-29T15:03:47.204Z,96077
2022-11-29T15:07:47.218Z,96086
2022-11-29T15:08:47.189Z,96083
2022-11-29T15:09:47.175Z,96084
2022-11-29T15:10:47.115Z,96086
2022-11-29T15:11:47.186Z,96087
2022-11-29T15:12:47.174Z,96087
2022-11-29T15:13:47.194Z,96085
2022-11-29T15:14:47.418Z,96085
2022-11-29T15:15:47.197Z,96086
2022-11-29T15:16:47.256Z,96086
2022-11-29T15:18:47.202Z,96085
2022-11-29T15:19:47.168Z,96086
2022-11-29T15:20:47.150Z,96087
2022-11-29T15:21:47.218Z,96093
2022-11-29T15:22:47.195Z,96095
2022-11-29T15:23:47.175Z,96093
2022-11-29T15:24:47.411Z,96093
2022-11-29T15:25:47.201Z,96096
2022-11-29T15:26:47.185Z,96100
2022-11-29T15:27:47.170Z,96100
2022-11-29T15:28:47.227Z,96098
2022-11-29T15:29:47.194Z,96094
2022-11-29T15:30:47.227Z,96096
2022-11-29T15:31:47.274Z,96096
2022-11-29T15:32:47.209Z,96096
2022-11-29T15:33:47.253Z,96101
2022-11-29T15:35:47.181Z,96099
2022-11-29T15:36:47.263Z,96102
2022-11-29T15:37:47.193Z,96102
2022-11-29T15:38:47.210Z,96103
2022-11-29T15:39:47.176Z,96103
2022-11-29T15:40:47.195Z,96104
2022-11-29T15:41:47.223Z,96106
2022-11-29T15:42:47.265Z,96105
2022-11-29T15:44:47.630Z,96109
2022-11-29T15:45:47.257Z,96109
2022-11-29T15:46:47.281Z,96109
2022-11-29T15:47:47.240Z,96109
2022-11-29T15:48:47.261Z,96109
2022-11-29T15:49:47.205Z,96109
2022-11-29T15:51:47.221Z,96107
2022-11-29T15:52:47.250Z,96107
2022-11-29T15:54:47.724Z,96112
2022-11-29T15:55:47.218Z,96114
2022-11-29T15:56:47.270Z,96112
2022-11-29T15:57:47.224Z,96112
2022-11-29T15:58:47.276Z,96113